Flight Track Log - Related Links

Times and Time Zones

All times are in EDT time to prevent confusion due to time zone crossing. See the CTL16 flight status page for this flight to view local times or setup timezone preferences in your user account.

Time Position Orientation Groundspeed Altitude Reporting Facility
EDT Latitude Longitude Course Direction KTS MPH feet Rate Location/Type
Tue 08:30:53 PM 39.4333 -84.4667 65° Northeast 146 168 3,500  Level Cincinnati TRACON
Tue 08:31:33 PM 39.4428 -84.4406 65° Northeast 148 170 4,000 947 Climbing Indianapolis Center
Tue 08:31:50 PM 39.4519 -84.4286 45° Northeast 147 169 4,400 871 Climbing Indianapolis Center
Tue 08:32:35 PM 39.4683 -84.4008 53° Northeast 144 166 4,900 689 Climbing Indianapolis Center
Tue 08:32:51 PM 39.4783 -84.3889 43° Northeast 143 165 5,100 787 Climbing Indianapolis Center
Tue 08:33:36 PM 39.4956 -84.3608 51° Northeast 146 168 5,700 885 Climbing Indianapolis Center
Tue 08:33:52 PM 39.5067 -84.3467 45° Northeast 147 169 6,000 871 Climbing Indianapolis Center
Tue 08:34:38 PM 39.5211 -84.3200 55° Northeast 146 168 6,600 556 Climbing Indianapolis Center
Tue 08:35:40 PM 39.5494 -84.2736 52° Northeast 142 163 7,000 195 Climbing Indianapolis Center
Tue 08:36:41 PM 39.5811 -84.2253 50° Northeast 158 182 7,000 44 Level Indianapolis Center
Tue 08:37:55 PM 39.6222 -84.1589 51° Northeast 184 212 7,100  Climbing Indianapolis Center
Tue 08:38:44 PM 39.6467 -84.1206 50° Northeast 182 209 7,000 -90 Descending Indianapolis Center
Tue 08:39:02 PM 39.6578 -84.1067 44° Northeast 183 211 7,000  Level Indianapolis Center
Tue 08:39:46 PM 39.6792 -84.0697 53° Northeast 182 209 7,000  Level Indianapolis Center
Tue 08:40:48 PM 39.7122 -84.0217 48° Northeast 179 206 7,000  Level Indianapolis Center
Tue 08:41:04 PM 39.7219 -84.0092 45° Northeast 179 206 7,000  Level Indianapolis Center
Tue 08:41:49 PM 39.7461 -83.9722 50° Northeast 180 207 7,000  Level Indianapolis Center
Tue 08:42:05 PM 39.7575 -83.9567 46° Northeast 179 206 7,000  Level Indianapolis Center
Tue 08:42:51 PM 39.7794 -83.9231 50° Northeast 180 207 7,000 -52 Level Indianapolis Center
Tue 08:44:00 PM 39.8172 -83.8586 53° Northeast 183 211 6,900  Descending Indianapolis Center
Tue 08:44:54 PM 39.8419 -83.8175 52° Northeast 182 209 7,000 52 Climbing Indianapolis Center
Tue 08:45:55 PM 39.8797 -83.7747 41° Northeast 179 206 7,000  Level Indianapolis Center
Tue 08:46:57 PM 39.9172 -83.7314 42° Northeast 178 205 7,000 -48 Level Indianapolis Center
Tue 08:47:59 PM 39.9539 -83.6867 43° Northeast 178 205 6,900  Descending Indianapolis Center
Tue 08:49:00 PM 39.9983 -83.6378 40° Northeast 177 204 7,000  Climbing Indianapolis Center
Tue 08:50:02 PM 40.0350 -83.5961 41° Northeast 174 200 6,900  Descending Indianapolis Center
Tue 08:51:03 PM 40.0703 -83.5525 43° Northeast 173 199 7,000 49 Climbing Indianapolis Center
Tue 08:52:05 PM 40.1072 -83.5094 42° Northeast 174 200 7,000 -49 Level Indianapolis Center
Tue 08:53:06 PM 40.1450 -83.4667 41° Northeast 176 203 6,900  Descending Indianapolis Center
Tue 08:54:08 PM 40.1822 -83.4231 42° Northeast 177 204 7,000 49 Climbing Indianapolis Center
Tue 08:55:09 PM 40.2208 -83.3781 42° Northeast 180 207 7,000  Level Indianapolis Center
Tue 08:56:11 PM 40.2589 -83.3319 43° Northeast 183 211 7,000  Level Indianapolis Center
Tue 08:57:12 PM 40.2975 -83.2856 42° Northeast 184 212 7,000 -49 Level Indianapolis Center
Tue 08:58:13 PM 40.3342 -83.2394 44° Northeast 184 212 6,900  Descending Indianapolis Center
Tue 08:59:15 PM 40.3725 -83.1947 42° Northeast 183 211 7,000 49 Climbing Indianapolis Center
Tue 09:00:16 PM 40.4111 -83.1511 41° Northeast 182 209 7,000 -98 Level Indianapolis Center
Tue 09:01:18 PM 40.4492 -83.1067 42° Northeast 182 209 6,800  Descending Indianapolis Center
Tue 09:02:19 PM 40.4881 -83.0611 42° Northeast 183 211 7,000 98 Climbing Indianapolis Center
Tue 09:03:21 PM 40.5322 -83.0069 43° Northeast 185 213 7,000  Level Indianapolis Center
Tue 09:04:22 PM 40.5700 -82.9583 44° Northeast 187 215 7,000  Level Indianapolis Center
Tue 09:05:23 PM 40.6089 -82.9133 41° Northeast 185 213 7,000  Level Indianapolis Center
Tue 09:06:25 PM 40.6472 -82.8672 42° Northeast 186 214 7,000 -49 Level Indianapolis Center
Tue 09:07:26 PM 40.6856 -82.8189 44° Northeast 188 216 6,900  Descending Indianapolis Center
Tue 09:08:28 PM 40.7219 -82.7694 46° Northeast 188 216 7,000 44 Climbing Indianapolis Center
Tue 09:09:42 PM 40.7686 -82.7133 42° Northeast 188 216 7,000  Level Cleveland Center
Tue 09:10:36 PM 40.8028 -82.6706 43° Northeast 187 215 7,000  Level Cleveland Center
Tue 09:11:37 PM 40.8411 -82.6222 44° Northeast 188 216 7,000  Level Cleveland Center
Tue 09:12:38 PM 40.8772 -82.5742 45° Northeast 186 214 7,000  Level Cleveland Center
Tue 09:13:38 PM 40.9136 -82.5256 45° Northeast 187 215 7,000  Level Cleveland Center
Tue 09:14:39 PM 40.9500 -82.4772 45° Northeast 183 211 7,000  Level Cleveland Center
Tue 09:15:40 PM 40.9903 -82.4289 42° Northeast 186 214 7,000  Level Cleveland Center
Tue 09:16:40 PM 41.0286 -82.3806 44° Northeast 187 215 7,000 50 Level Cleveland Center
Tue 09:17:41 PM 41.0628 -82.3319 47° Northeast 182 209 7,100  Climbing Cleveland Center
Tue 09:18:29 PM 41.0925 -82.2994 39° Northeast 185 213 7,000 -52 Descending Cleveland Center
Tue 09:19:36 PM 41.1350 -82.2400 46° Northeast 185 213 7,000  Level Cleveland Center
Tue 09:20:37 PM 41.1711 -82.1914 45° Northeast 189 217 7,000  Level Cleveland Center
Tue 09:21:37 PM 41.2072 -82.1453 44° Northeast 185 213 7,000 50 Level Cleveland Center
Tue 09:22:38 PM 41.2433 -82.0936 47° Northeast 192 221 7,100  Climbing Cleveland Center
Tue 09:23:33 PM 41.2669 -82.0306 64° Northeast 207 238 7,000 -49 Descending Cleveland Center
Tue 09:24:40 PM 41.2969 -81.9678 58° Northeast 192 221 7,000  Level Cleveland Center
Tue 09:25:34 PM 41.3247 -81.9103 57° Northeast 191 220 7,000 104 Level Cleveland Center
Tue 09:26:35 PM 41.3483 -81.8528 61° Northeast 182 209 7,200 -298 Climbing Cleveland Center
Tue 09:27:35 PM 41.3739 -81.8033 55° Northeast 164 189 6,400 -992 Descending Cleveland Center
Tue 09:28:36 PM 41.4058 -81.7514 51° Northeast 171 197 5,200 -1,172 Descending Cleveland Center
Tue 09:29:43 PM 41.4417 -81.7022 46° Northeast 166 191 3,900 -1,087 Descending Cleveland Center
Tue 09:30:43 PM 41.4836 -81.6753 26° Northeast 169 194 2,900 -942 Descending Cleveland Center
Tue 09:31:44 PM 41.5150 -81.6536 27° Northeast 121 139 2,000 -992 Descending Cleveland Center
Tue 09:32:44 PM 41.5317 -81.6594 345° North 106 122 900 -1,100 Descending Cleveland Center

Login

Don't have an account? Register now (free) for customized features, flight alerts, and more!